Time;durP1;ratioP1;P1;durP2;ratioP2;P2;SDS_P1;SDS_P2;PMS_P1;PMS_P2;Temp;Humidity;BMP_temperature;BMP_pressure;BME280_temperature;BME280_humidity;BME280_pressure;Samples;Min_cycle;Max_cycle;Signal;HPM_P1;HPM_P2
2024/01/16 00:01:32;;;;;;;4.10;2.88;;;8.40;63.00;;;;;;6251363;28;20509;-73
2024/01/16 00:04:35;;;;;;;6.43;3.33;;;8.30;63.00;;;;;;6249817;28;20017;-73
2024/01/16 00:07:39;;;;;;;8.13;3.10;;;8.30;63.10;;;;;;6249297;28;20017;-73
2024/01/16 00:10:40;;;;;;;8.38;3.35;;;8.30;63.10;;;;;;6238235;28;20071;-72
2024/01/16 00:13:41;;;;;;;6.97;3.75;;;8.30;63.10;;;;;;6251163;28;20029;-72
2024/01/16 00:16:43;;;;;;;6.72;2.95;;;8.30;63.10;;;;;;6244385;28;20018;-72
2024/01/16 00:19:44;;;;;;;4.97;2.60;;;8.20;62.90;;;;;;6274466;28;20021;-73
2024/01/16 00:22:45;;;;;;;4.70;2.78;;;8.20;62.90;;;;;;6278483;28;20037;-74
2024/01/16 00:25:46;;;;;;;6.95;3.53;;;8.10;62.90;;;;;;6246226;28;20060;-72
2024/01/16 00:28:47;;;;;;;7.03;3.55;;;8.00;63.00;;;;;;6244183;28;20018;-72
2024/01/16 00:31:49;;;;;;;6.88;2.75;;;8.00;63.30;;;;;;6247862;28;20454;-73
2024/01/16 00:34:50;;;;;;;8.05;3.20;;;8.00;63.40;;;;;;6229497;28;20041;-71
2024/01/16 00:37:52;;;;;;;5.75;2.97;;;7.90;63.40;;;;;;6243126;28;20456;-73
2024/01/16 00:40:53;;;;;;;11.05;4.28;;;7.90;63.50;;;;;;6242094;28;20039;-71
2024/01/16 00:43:55;;;;;;;5.20;2.55;;;7.80;63.30;;;;;;6243435;28;20481;-72
2024/01/16 00:46:57;;;;;;;6.88;3.47;;;7.80;63.50;;;;;;6267455;28;20111;-73
2024/01/16 00:50:00;;;;;;;6.47;3.88;;;7.70;63.50;;;;;;6231455;28;20053;-73
2024/01/16 00:53:02;;;;;;;5.72;3.55;;;7.90;63.60;;;;;;6247564;28;20136;-72
2024/01/16 00:56:04;;;;;;;6.18;3.72;;;7.60;63.60;;;;;;6279753;28;20442;-72
2024/01/16 00:59:06;;;;;;;9.45;4.90;;;7.60;63.60;;;;;;6246493;28;20035;-73
2024/01/16 01:02:09;;;;;;;10.52;3.97;;;7.70;63.70;;;;;;6245892;28;20013;-71
2024/01/16 01:05:10;;;;;;;7.50;3.05;;;7.70;63.70;;;;;;6241623;28;20013;-71
2024/01/16 01:08:12;;;;;;;5.93;2.90;;;7.60;63.60;;;;;;6246059;28;20065;-72
2024/01/16 01:11:14;;;;;;;7.60;3.97;;;7.50;63.50;;;;;;6254180;28;20045;-72
2024/01/16 01:14:14;;;;;;;11.93;3.67;;;7.60;63.70;;;;;;6250002;28;20017;-73
2024/01/16 01:17:15;;;;;;;7.10;3.45;;;7.50;63.70;;;;;;6245489;28;20606;-71
2024/01/16 01:20:19;;;;;;;10.73;4.80;;;7.50;63.90;;;;;;6234341;28;20231;-72
2024/01/16 01:23:20;;;;;;;3.58;2.70;;;7.50;64.00;;;;;;6243928;28;20035;-72
2024/01/16 01:26:21;;;;;;;12.20;3.58;;;7.50;64.00;;;;;;6244893;28;20083;-71
2024/01/16 01:29:24;;;;;;;6.95;3.17;;;7.50;63.90;;;;;;6244840;28;20132;-72
2024/01/16 01:32:26;;;;;;;4.97;2.92;;;7.60;63.90;;;;;;6241759;28;20028;-72
2024/01/16 01:35:28;;;;;;;4.38;3.00;;;7.60;63.80;;;;;;6242170;28;20030;-72
2024/01/16 01:38:28;;;;;;;8.25;4.18;;;7.60;63.70;;;;;;6228074;28;20051;-72
2024/01/16 01:41:30;;;;;;;6.32;3.60;;;7.60;63.80;;;;;;6264669;28;20505;-72
2024/01/16 01:44:31;;;;;;;6.78;3.50;;;7.60;63.70;;;;;;6240802;28;20017;-72
2024/01/16 01:47:33;;;;;;;6.75;3.00;;;7.60;63.60;;;;;;6261721;28;20091;-72
2024/01/16 01:50:34;;;;;;;7.82;3.58;;;7.70;63.70;;;;;;6246741;28;20022;-72
2024/01/16 01:53:37;;;;;;;6.88;3.50;;;7.70;63.80;;;;;;6260183;28;20520;-72
2024/01/16 01:56:39;;;;;;;5.20;3.20;;;7.80;63.70;;;;;;6282632;28;20432;-72
2024/01/16 01:59:40;;;;;;;7.60;3.55;;;7.70;63.50;;;;;;6243129;28;20018;-71
2024/01/16 02:02:42;;;;;;;10.52;4.65;;;7.90;63.50;;;;;;6259826;28;20108;-71
2024/01/16 02:05:43;;;;;;;4.50;3.40;;;7.70;63.40;;;;;;6260597;28;20035;-72
2024/01/16 02:08:45;;;;;;;10.38;4.47;;;7.60;63.30;;;;;;6246696;28;20105;-72
2024/01/16 02:11:46;;;;;;;5.90;3.55;;;7.60;63.30;;;;;;6252022;28;20017;-72
2024/01/16 02:14:47;;;;;;;9.40;4.43;;;7.50;63.30;;;;;;6252516;28;20032;-73
2024/01/16 02:17:48;;;;;;;8.32;3.60;;;7.50;63.40;;;;;;6250915;28;20158;-72
2024/01/16 02:20:50;;;;;;;4.25;2.55;;;7.50;63.60;;;;;;6247407;28;20025;-72
2024/01/16 02:23:51;;;;;;;3.92;3.20;;;7.50;63.60;;;;;;6247365;28;20068;-71
2024/01/16 02:26:53;;;;;;;13.55;4.25;;;7.50;63.60;;;;;;6243225;28;20116;-71
2024/01/16 02:29:55;;;;;;;5.95;4.10;;;7.50;63.60;;;;;;6245933;28;20108;-72
2024/01/16 02:32:58;;;;;;;7.55;3.20;;;7.50;63.60;;;;;;6244733;28;20120;-72
2024/01/16 02:35:59;;;;;;;5.47;3.22;;;7.50;63.60;;;;;;6244320;28;20493;-71
2024/01/16 02:39:00;;;;;;;8.45;3.65;;;7.50;63.70;;;;;;6281062;28;20217;-71
2024/01/16 02:42:02;;;;;;;5.95;3.25;;;7.50;63.70;;;;;;6244805;28;20079;-71
2024/01/16 02:45:04;;;;;;;7.15;4.53;;;7.50;63.70;;;;;;6245052;28;20685;-72
2024/01/16 02:48:06;;;;;;;5.20;3.03;;;7.50;63.50;;;;;;6266531;28;20047;-72
2024/01/16 02:51:07;;;;;;;10.43;5.05;;;7.40;63.30;;;;;;6244777;28;20020;-70
2024/01/16 02:54:08;;;;;;;8.82;3.78;;;7.50;63.20;;;;;;6276724;28;20037;-72
2024/01/16 02:57:09;;;;;;;7.85;4.10;;;7.40;63.30;;;;;;6249852;28;20094;-72
2024/01/16 03:00:11;;;;;;;6.50;3.25;;;7.40;63.30;;;;;;6258272;28;20020;-73
2024/01/16 03:03:17;;;;;;;6.82;3.60;;;7.40;63.30;;;;;;6236631;28;20029;-72
2024/01/16 03:06:23;;;;;;;9.25;4.53;;;7.40;63.30;;;;;;6263178;28;20029;-76
2024/01/16 03:09:24;;;;;;;6.18;3.47;;;7.40;63.30;;;;;;6249451;28;20044;-72
2024/01/16 03:12:25;;;;;;;6.05;3.40;;;7.40;63.30;;;;;;6252635;28;20017;-72
2024/01/16 03:15:25;;;;;;;6.45;3.28;;;7.30;63.10;;;;;;6236095;28;20428;-73
2024/01/16 03:18:26;;;;;;;6.78;3.85;;;7.40;63.10;;;;;;6248326;28;20024;-74
2024/01/16 03:21:27;;;;;;;9.95;3.92;;;7.40;63.10;;;;;;6248120;28;20065;-71
2024/01/16 03:24:28;;;;;;;8.65;4.28;;;7.40;63.30;;;;;;6228956;28;20493;-72
2024/01/16 03:27:29;;;;;;;7.90;3.35;;;7.50;63.20;;;;;;6233520;28;20505;-71
2024/01/16 03:30:29;;;;;;;7.75;4.60;;;7.50;63.10;;;;;;6251188;28;20855;-72
2024/01/16 03:33:31;;;;;;;7.60;4.35;;;7.50;63.00;;;;;;6252651;28;20084;-71
2024/01/16 03:36:32;;;;;;;8.85;3.63;;;7.50;63.00;;;;;;6247104;28;20134;-71
2024/01/16 03:39:33;;;;;;;10.27;4.22;;;7.60;63.10;;;;;;6245106;28;20399;-73
2024/01/16 03:42:34;;;;;;;6.53;3.65;;;7.60;63.00;;;;;;6227395;28;20112;-72
2024/01/16 03:45:35;;;;;;;8.00;4.07;;;7.60;62.90;;;;;;6248392;28;20513;-71
2024/01/16 03:48:36;;;;;;;13.15;4.78;;;7.60;62.90;;;;;;6254333;28;20111;-72
2024/01/16 03:51:37;;;;;;;12.13;5.03;;;7.60;63.00;;;;;;6278315;28;20445;-72
2024/01/16 03:54:38;;;;;;;8.15;4.53;;;7.60;62.80;;;;;;6255889;28;20531;-73
2024/01/16 03:57:39;;;;;;;6.57;3.60;;;7.60;62.80;;;;;;6248127;28;20024;-71
2024/01/16 04:00:40;;;;;;;8.25;4.10;;;7.60;62.80;;;;;;6252651;28;20045;-72
2024/01/16 04:03:41;;;;;;;6.07;3.63;;;7.80;62.90;;;;;;6246397;28;20025;-72
2024/01/16 04:06:42;;;;;;;7.85;3.78;;;7.80;62.90;;;;;;6244199;28;20334;-72
2024/01/16 04:09:43;;;;;;;8.48;4.03;;;7.90;62.80;;;;;;6279969;28;20056;-72
2024/01/16 04:12:44;;;;;;;14.23;4.85;;;8.00;62.70;;;;;;6240495;28;20180;-73
2024/01/16 04:15:45;;;;;;;11.15;4.28;;;8.00;62.50;;;;;;6247092;28;20585;-72
2024/01/16 04:18:46;;;;;;;6.57;3.38;;;8.00;62.30;;;;;;6247278;28;20072;-72
2024/01/16 04:21:46;;;;;;;6.85;3.40;;;8.00;62.30;;;;;;6232233;28;20108;-72
2024/01/16 04:24:47;;;;;;;5.70;3.45;;;8.10;62.30;;;;;;6245194;28;20071;-73
2024/01/16 04:27:48;;;;;;;8.02;3.85;;;8.10;62.40;;;;;;6246329;28;20122;-72
2024/01/16 04:30:51;;;;;;;7.88;4.05;;;8.00;62.50;;;;;;6253496;28;20035;-73
2024/01/16 04:33:51;;;;;;;10.55;5.15;;;8.10;62.50;;;;;;6246387;28;20063;-73
2024/01/16 04:36:54;;;;;;;9.98;4.65;;;8.10;62.40;;;;;;6248409;28;20461;-72
2024/01/16 04:39:55;;;;;;;7.15;3.90;;;8.10;62.50;;;;;;6261636;28;20111;-72
2024/01/16 04:42:56;;;;;;;9.02;4.32;;;8.10;62.60;;;;;;6270995;28;20021;-72
2024/01/16 04:45:57;;;;;;;8.32;4.50;;;8.20;62.60;;;;;;6258809;28;20044;-72
2024/01/16 04:48:58;;;;;;;9.13;4.63;;;8.30;62.70;;;;;;6240592;28;20073;-72
2024/01/16 04:51:59;;;;;;;8.30;4.22;;;8.30;62.60;;;;;;6244244;28;20025;-73
2024/01/16 04:55:00;;;;;;;7.38;3.75;;;8.30;62.40;;;;;;6246170;28;20096;-71
2024/01/16 04:58:03;;;;;;;11.95;4.18;;;8.30;62.40;;;;;;6240347;28;20404;-72
2024/01/16 05:01:04;;;;;;;8.40;4.50;;;8.40;62.40;;;;;;6249280;28;20112;-72
2024/01/16 05:04:07;;;;;;;20.17;5.03;;;8.40;62.30;;;;;;6244428;28;20544;-73
2024/01/16 05:07:08;;;;;;;13.73;4.15;;;8.40;62.20;;;;;;6280519;28;20125;-71
2024/01/16 05:10:12;;;;;;;14.70;4.55;;;8.40;62.10;;;;;;6249062;28;20052;-71
2024/01/16 05:13:13;;;;;;;11.07;5.30;;;8.50;62.30;;;;;;6258388;28;20141;-73
2024/01/16 05:16:14;;;;;;;11.35;5.10;;;8.50;62.30;;;;;;6263812;28;20044;-72
2024/01/16 05:19:15;;;;;;;10.52;4.22;;;8.50;62.30;;;;;;6232485;28;20335;-71
2024/01/16 05:22:16;;;;;;;10.75;4.72;;;8.60;62.20;;;;;;6244960;28;20025;-72
2024/01/16 05:25:18;;;;;;;12.98;5.10;;;8.60;62.20;;;;;;6247689;28;20342;-72
2024/01/16 05:28:19;;;;;;;11.38;4.93;;;8.60;62.10;;;;;;6236520;28;20025;-72
2024/01/16 05:31:20;;;;;;;10.25;4.25;;;8.60;61.90;;;;;;6248145;28;20024;-72
2024/01/16 05:34:21;;;;;;;10.13;4.88;;;8.60;61.70;;;;;;6246826;28;20488;-74
2024/01/16 05:37:22;;;;;;;14.63;4.85;;;8.60;61.60;;;;;;6248809;28;20075;-71
2024/01/16 05:40:24;;;;;;;7.10;3.88;;;8.50;61.70;;;;;;6246923;28;20028;-71
2024/01/16 05:43:25;;;;;;;15.05;5.38;;;8.50;61.70;;;;;;6265482;28;20021;-72
2024/01/16 05:46:26;;;;;;;12.48;5.72;;;8.50;61.70;;;;;;6251310;28;20503;-72
2024/01/16 05:49:26;;;;;;;10.10;4.93;;;8.50;61.90;;;;;;6230423;28;20109;-72
2024/01/16 05:52:27;;;;;;;8.60;4.43;;;8.40;61.90;;;;;;6233604;28;20511;-72
2024/01/16 05:55:31;;;;;;;6.43;3.60;;;8.40;62.10;;;;;;6248009;28;20037;-72
2024/01/16 05:58:37;;;;;;;12.10;4.63;;;8.40;62.20;;;;;;6230701;28;20417;-71
2024/01/16 06:01:38;;;;;;;13.18;3.95;;;8.30;62.20;;;;;;6253021;28;20029;-72
2024/01/16 06:04:39;;;;;;;13.00;5.30;;;8.30;62.30;;;;;;6249802;28;20051;-72
2024/01/16 06:07:40;;;;;;;12.15;4.57;;;8.20;62.40;;;;;;6263354;28;20134;-71
2024/01/16 06:10:41;;;;;;;10.25;4.80;;;8.20;62.70;;;;;;6245746;28;20074;-72
2024/01/16 06:13:42;;;;;;;12.75;4.78;;;8.10;63.00;;;;;;6253382;28;20026;-72
2024/01/16 06:16:43;;;;;;;9.15;5.10;;;8.10;63.20;;;;;;6233373;28;20021;-72
2024/01/16 06:19:44;;;;;;;10.10;4.07;;;8.00;63.40;;;;;;6232224;28;20017;-72
2024/01/16 06:22:46;;;;;;;12.45;5.70;;;8.00;63.70;;;;;;6249893;28;20385;-71
2024/01/16 06:25:47;;;;;;;12.48;6.05;;;8.00;63.70;;;;;;6246965;28;20828;-73
2024/01/16 06:28:48;;;;;;;13.80;5.65;;;8.00;63.90;;;;;;6244886;28;20127;-72
2024/01/16 06:31:49;;;;;;;15.32;5.97;;;8.00;64.00;;;;;;6242686;28;20073;-71
2024/01/16 06:34:50;;;;;;;8.55;4.93;;;7.90;64.10;;;;;;6237219;28;20505;-73
2024/01/16 06:37:51;;;;;;;11.45;5.18;;;7.90;64.20;;;;;;6244075;28;20101;-71
2024/01/16 06:40:52;;;;;;;11.15;5.72;;;7.90;64.30;;;;;;6254000;28;20056;-72
2024/01/16 06:43:53;;;;;;;7.10;4.55;;;7.90;64.50;;;;;;6239313;28;20024;-71
2024/01/16 06:46:54;;;;;;;8.57;4.93;;;7.90;64.60;;;;;;6253083;28;20520;-71
2024/01/16 06:49:56;;;;;;;13.45;6.93;;;7.90;65.20;;;;;;6251458;28;20041;-73
2024/01/16 06:52:58;;;;;;;11.38;5.60;;;7.90;64.80;;;;;;6251824;28;20633;-71
2024/01/16 06:55:59;;;;;;;13.00;6.15;;;7.80;64.90;;;;;;6249472;28;20049;-72
2024/01/16 06:59:01;;;;;;;15.32;6.68;;;7.80;65.00;;;;;;6264559;28;20099;-71
2024/01/16 07:02:03;;;;;;;15.23;6.80;;;7.90;65.00;;;;;;6250096;28;20482;-74
2024/01/16 07:05:04;;;;;;;9.52;5.15;;;7.90;64.90;;;;;;6248168;28;20033;-74
2024/01/16 07:08:05;;;;;;;9.00;5.65;;;7.90;64.90;;;;;;6237153;28;20025;-72
2024/01/16 07:11:08;;;;;;;16.60;5.07;;;8.00;64.90;;;;;;6235551;28;20132;-72
2024/01/16 07:14:11;;;;;;;13.32;5.82;;;8.00;64.80;;;;;;6245686;28;20059;-72
2024/01/16 07:17:12;;;;;;;14.40;6.25;;;8.10;64.70;;;;;;6246985;28;20090;-73
2024/01/16 07:20:13;;;;;;;16.95;4.70;;;8.10;64.60;;;;;;6276369;28;20017;-71
2024/01/16 07:23:14;;;;;;;12.15;5.85;;;8.10;64.60;;;;;;6244592;28;20060;-72
2024/01/16 07:26:16;;;;;;;12.57;5.35;;;8.10;64.60;;;;;;6250483;28;20025;-72
2024/01/16 07:29:21;;;;;;;11.93;5.13;;;8.10;64.80;;;;;;6246209;28;20031;-73
2024/01/16 07:32:22;;;;;;;9.25;5.25;;;8.10;65.00;;;;;;6246259;28;20029;-72
2024/01/16 07:35:22;;;;;;;12.60;6.60;;;8.00;65.20;;;;;;6246810;28;20121;-73
2024/01/16 07:38:23;;;;;;;11.77;6.20;;;8.00;65.40;;;;;;6231692;28;20018;-73
2024/01/16 07:41:24;;;;;;;10.25;5.15;;;8.00;65.50;;;;;;6249666;28;20086;-72
2024/01/16 07:44:25;;;;;;;11.00;5.78;;;8.00;65.70;;;;;;6250290;28;20128;-73
2024/01/16 07:47:26;;;;;;;15.55;6.75;;;8.00;65.70;;;;;;6243788;28;20079;-74
2024/01/16 07:50:28;;;;;;;9.70;4.60;;;8.10;65.80;;;;;;6244136;28;20021;-73
2024/01/16 07:53:29;;;;;;;15.52;6.75;;;8.00;65.80;;;;;;6247732;28;20072;-74
2024/01/16 07:56:29;;;;;;;14.80;5.78;;;8.00;66.10;;;;;;6248657;28;20489;-72
2024/01/16 07:59:30;;;;;;;15.35;5.47;;;8.10;66.20;;;;;;6242763;28;20024;-71
2024/01/16 08:02:34;;;;;;;13.27;7.22;;;8.20;66.20;;;;;;6245026;28;20013;-73
2024/01/16 08:05:35;;;;;;;15.30;7.07;;;8.30;66.00;;;;;;6246092;28;20120;-72
2024/01/16 08:08:36;;;;;;;19.63;7.60;;;8.30;65.90;;;;;;6245240;28;20099;-73
2024/01/16 08:11:39;;;;;;;13.75;7.57;;;8.30;65.80;;;;;;6279167;28;20033;-73
2024/01/16 08:14:40;;;;;;;12.15;6.18;;;8.40;65.70;;;;;;6260671;28;20025;-72
2024/01/16 08:17:40;;;;;;;20.58;7.10;;;8.40;65.60;;;;;;6250865;28;20108;-73
2024/01/16 08:20:41;;;;;;;18.23;7.03;;;8.50;65.50;;;;;;6266895;28;20024;-71
2024/01/16 08:23:42;;;;;;;18.17;7.65;;;8.50;66.10;;;;;;6246873;28;20029;-73
2024/01/16 08:26:43;;;;;;;18.73;7.32;;;8.60;65.30;;;;;;6244758;28;20047;-74
2024/01/16 08:29:44;;;;;;;17.48;8.05;;;8.60;65.20;;;;;;6213419;28;20029;-71
2024/01/16 08:32:45;;;;;;;18.27;8.95;;;8.60;65.10;;;;;;6264293;28;20033;-72
2024/01/16 08:35:46;;;;;;;20.02;8.27;;;8.60;64.90;;;;;;6247597;28;20021;-74
2024/01/16 08:38:46;;;;;;;18.60;7.30;;;8.60;64.80;;;;;;6242088;28;20060;-73
2024/01/16 08:41:47;;;;;;;15.60;7.15;;;8.60;64.90;;;;;;6242485;28;20036;-72
2024/01/16 08:44:48;;;;;;;18.15;7.10;;;8.60;65.00;;;;;;6248279;28;20032;-73
2024/01/16 08:47:49;;;;;;;23.25;7.93;;;8.60;64.90;;;;;;6264504;28;20025;-73
2024/01/16 08:50:50;;;;;;;17.00;7.80;;;8.70;65.00;;;;;;6264795;28;20170;-71
2024/01/16 08:53:51;;;;;;;18.85;6.68;;;8.80;64.90;;;;;;6249228;28;20087;-73
2024/01/16 08:56:52;;;;;;;21.23;6.93;;;8.80;64.70;;;;;;6279651;28;20370;-73
2024/01/16 08:59:54;;;;;;;20.23;7.72;;;8.80;64.80;;;;;;6244134;28;20028;-73
2024/01/16 09:02:55;;;;;;;16.98;7.22;;;8.80;64.70;;;;;;6250130;28;20441;-73
2024/01/16 09:05:56;;;;;;;20.75;8.63;;;8.80;64.50;;;;;;6240880;28;20025;-72
2024/01/16 09:08:57;;;;;;;12.10;6.97;;;8.80;64.50;;;;;;6285869;28;20035;-72
2024/01/16 09:11:58;;;;;;;21.40;8.07;;;8.90;64.40;;;;;;6249042;28;20668;-72
2024/01/16 09:15:01;;;;;;;14.65;7.15;;;8.80;64.30;;;;;;6246288;28;20048;-72
2024/01/16 09:18:04;;;;;;;14.77;6.65;;;8.90;64.40;;;;;;6221584;28;20450;-72
2024/01/16 09:21:05;;;;;;;19.40;8.18;;;8.80;64.40;;;;;;6246114;28;20434;-71
2024/01/16 09:24:06;;;;;;;14.38;6.40;;;8.80;63.60;;;;;;6238796;28;20040;-72
2024/01/16 09:27:09;;;;;;;15.25;8.30;;;8.80;64.10;;;;;;6242123;28;20045;-72
2024/01/16 09:30:12;;;;;;;14.02;7.60;;;8.80;64.40;;;;;;6246354;28;20153;-73
2024/01/16 09:33:15;;;;;;;15.25;8.13;;;8.80;64.50;;;;;;6248899;28;20027;-73
2024/01/16 09:36:18;;;;;;;15.50;8.45;;;8.90;64.30;;;;;;6241610;28;20017;-72
2024/01/16 09:39:21;;;;;;;11.82;6.05;;;8.90;64.10;;;;;;6242822;28;20425;-73
2024/01/16 09:42:24;;;;;;;17.73;7.70;;;8.90;64.10;;;;;;6252850;28;20108;-73
2024/01/16 09:45:27;;;;;;;16.70;6.70;;;8.90;64.00;;;;;;6240242;28;20036;-72
2024/01/16 09:48:29;;;;;;;14.48;7.00;;;8.90;64.10;;;;;;6242676;28;20025;-75
2024/01/16 09:51:30;;;;;;;15.38;8.20;;;9.00;64.20;;;;;;6241334;28;20029;-74
2024/01/16 09:54:31;;;;;;;17.48;8.75;;;9.00;64.00;;;;;;6244647;28;20091;-72
2024/01/16 09:57:33;;;;;;;27.17;6.82;;;9.10;63.90;;;;;;6245747;28;20040;-73
2024/01/16 10:00:35;;;;;;;15.75;6.15;;;9.10;63.70;;;;;;6242971;28;20056;-70
2024/01/16 10:03:37;;;;;;;25.52;8.57;;;9.20;63.40;;;;;;6243643;28;20108;-72
2024/01/16 10:06:39;;;;;;;17.40;6.97;;;9.20;63.30;;;;;;6232263;28;20025;-73
2024/01/16 10:09:41;;;;;;;18.77;8.10;;;9.20;63.40;;;;;;6249539;28;20480;-73
2024/01/16 10:12:43;;;;;;;12.38;6.45;;;9.30;63.40;;;;;;6249345;28;20520;-73
2024/01/16 10:15:48;;;;;;;21.42;7.18;;;9.40;63.20;;;;;;6251312;28;20037;-73
2024/01/16 10:19:03;;;;;;;28.48;9.63;;;9.40;63.10;;;;;;6248514;28;20091;-73
2024/01/16 10:22:06;;;;;;;21.55;8.00;;;9.50;63.10;;;;;;6249903;28;20029;-72
2024/01/16 10:25:09;;;;;;;21.17;7.97;;;9.50;63.10;;;;;;6265820;28;20028;-73
2024/01/16 10:28:11;;;;;;;24.08;8.93;;;9.60;63.00;;;;;;6245511;28;20030;-72
2024/01/16 10:31:16;;;;;;;19.80;10.00;;;9.70;62.70;;;;;;6243273;28;20438;-72
2024/01/16 10:34:23;;;;;;;15.52;8.05;;;9.70;62.60;;;;;;6244528;28;20033;-74
2024/01/16 10:37:24;;;;;;;26.98;9.43;;;9.80;62.80;;;;;;6245532;28;20012;-73
2024/01/16 10:40:25;;;;;;;24.70;8.77;;;9.80;62.80;;;;;;6247766;28;21401;-73
2024/01/16 10:43:27;;;;;;;22.05;9.20;;;9.90;62.40;;;;;;6263940;28;20025;-72
2024/01/16 10:46:29;;;;;;;27.40;12.13;;;10.00;62.40;;;;;;6236078;28;20422;-73
2024/01/16 10:49:31;;;;;;;17.70;7.97;;;10.10;62.40;;;;;;6232116;28;20400;-72
2024/01/16 10:52:34;;;;;;;23.48;9.27;;;10.20;62.00;;;;;;6247810;28;20036;-72
2024/01/16 10:55:57;;;;;;;18.30;8.65;;;10.30;61.60;;;;;;6261511;28;20037;-71
2024/01/16 10:59:18;;;;;;;23.17;10.60;;;10.20;61.50;;;;;;6249098;28;20188;-73
2024/01/16 11:02:23;;;;;;;27.13;10.57;;;10.30;61.40;;;;;;6243498;28;20017;-74
2024/01/16 11:05:26;;;;;;;27.73;11.10;;;10.30;61.30;;;;;;6247331;28;20484;-72
2024/01/16 11:08:32;;;;;;;18.13;9.48;;;10.30;61.40;;;;;;6256009;28;20539;-73
2024/01/16 11:11:34;;;;;;;16.17;8.43;;;10.30;61.30;;;;;;6256252;28;20021;-74
2024/01/16 11:14:37;;;;;;;23.48;10.35;;;10.40;60.90;;;;;;6284663;28;20492;-70
2024/01/16 11:17:39;;;;;;;23.20;9.02;;;10.30;60.80;;;;;;6246369;28;20029;-75
2024/01/16 11:20:42;;;;;;;19.63;9.02;;;10.30;60.90;;;;;;6265455;28;20048;-73
2024/01/16 11:23:45;;;;;;;19.05;9.32;;;10.30;61.20;;;;;;6243103;28;20438;-73
2024/01/16 11:26:46;;;;;;;41.58;9.77;;;10.40;61.20;;;;;;6246414;28;20135;-73
2024/01/16 11:29:50;;;;;;;20.33;8.90;;;10.40;61.00;;;;;;6243975;28;20033;-72
2024/01/16 11:32:52;;;;;;;18.88;7.97;;;10.50;61.10;;;;;;6241221;28;20029;-73
2024/01/16 11:35:52;;;;;;;14.32;7.65;;;10.50;61.00;;;;;;6243224;28;20055;-74
2024/01/16 11:38:57;;;;;;;30.95;9.07;;;10.60;61.00;;;;;;6242594;28;20207;-74
2024/01/16 11:41:59;;;;;;;17.35;8.15;;;10.50;60.70;;;;;;6245603;28;20032;-72
2024/01/16 11:45:00;;;;;;;16.65;7.40;;;10.40;60.60;;;;;;6241895;28;20102;-73
2024/01/16 11:48:15;;;;;;;15.43;7.22;;;10.40;61.00;;;;;;6243931;28;20041;-72
2024/01/16 11:51:24;;;;;;;22.23;10.38;;;10.30;61.40;;;;;;6245022;28;20503;-74
2024/01/16 11:54:25;;;;;;;15.50;7.95;;;10.30;61.50;;;;;;6224408;28;20539;-74
2024/01/16 11:57:55;;;;;;;19.05;8.15;;;10.40;61.40;;;;;;6247052;28;20022;-74
2024/01/16 12:00:57;;;;;;;24.70;8.32;;;10.40;61.40;;;;;;6246369;28;20025;-74
2024/01/16 12:04:06;;;;;;;16.65;7.15;;;10.30;61.20;;;;;;6258966;28;20029;-74
2024/01/16 12:07:07;;;;;;;14.77;7.15;;;10.40;61.30;;;;;;6248797;28;20013;-74
2024/01/16 12:10:09;;;;;;;11.25;5.93;;;10.40;61.10;;;;;;6249142;28;20112;-75
2024/01/16 12:13:12;;;;;;;15.60;6.00;;;10.40;60.90;;;;;;6246977;28;20040;-75
2024/01/16 12:16:18;;;;;;;12.57;6.65;;;10.50;60.70;;;;;;6246772;28;20106;-74
2024/01/16 12:19:19;;;;;;;12.18;5.38;;;10.50;60.40;;;;;;6246440;28;20040;-72
2024/01/16 12:22:22;;;;;;;12.60;5.55;;;10.60;60.00;;;;;;6237563;28;20094;-73
2024/01/16 12:25:24;;;;;;;14.15;6.55;;;10.70;59.80;;;;;;6282310;28;20024;-74
2024/01/16 12:28:26;;;;;;;12.10;7.07;;;10.70;59.60;;;;;;6248209;28;20041;-73
2024/01/16 12:31:28;;;;;;;11.35;6.45;;;10.80;59.30;;;;;;6252214;28;20031;-74
2024/01/16 12:34:30;;;;;;;13.05;6.43;;;10.80;59.30;;;;;;6251026;28;20029;-73
2024/01/16 12:37:30;;;;;;;18.95;7.10;;;10.90;59.50;;;;;;6259106;28;20125;-71
2024/01/16 12:40:33;;;;;;;18.95;8.80;;;10.90;59.50;;;;;;6243595;28;20014;-73
2024/01/16 12:43:34;;;;;;;16.70;7.40;;;11.00;59.50;;;;;;6244531;28;20021;-73
2024/01/16 12:46:35;;;;;;;15.10;7.15;;;11.10;59.40;;;;;;6228575;28;20086;-73
2024/01/16 12:49:45;;;;;;;12.18;6.18;;;11.00;59.40;;;;;;6246661;28;20021;-73
2024/01/16 12:52:46;;;;;;;15.00;7.35;;;11.00;59.50;;;;;;6259020;28;20128;-74
2024/01/16 12:55:58;;;;;;;11.80;6.35;;;11.00;59.50;;;;;;6243042;28;20028;-75
2024/01/16 12:59:12;;;;;;;13.23;7.22;;;11.10;59.80;;;;;;6249906;28;20145;-74
2024/01/16 13:02:24;;;;;;;12.02;6.05;;;11.20;59.60;;;;;;6222836;28;20028;-72
2024/01/16 13:05:25;;;;;;;15.38;6.40;;;11.20;59.40;;;;;;6228710;28;20118;-73
2024/01/16 13:08:27;;;;;;;23.13;6.88;;;11.50;59.40;;;;;;6258166;28;20479;-73
2024/01/16 13:11:29;;;;;;;13.02;7.00;;;11.50;59.20;;;;;;6226301;28;20049;-73
2024/01/16 13:14:30;;;;;;;17.88;7.80;;;11.50;59.00;;;;;;6242559;28;20033;-74
2024/01/16 13:17:33;;;;;;;16.77;6.45;;;11.40;59.20;;;;;;6242441;28;20047;-74
2024/01/16 13:20:34;;;;;;;11.68;6.50;;;11.40;59.50;;;;;;6261003;28;20094;-73
2024/01/16 13:23:37;;;;;;;13.80;6.10;;;11.40;59.20;;;;;;6242063;28;20091;-73
2024/01/16 13:26:38;;;;;;;13.15;6.22;;;11.40;59.20;;;;;;6247270;28;20043;-72
2024/01/16 13:29:40;;;;;;;11.73;5.47;;;11.40;59.10;;;;;;6247157;28;20021;-72
2024/01/16 13:32:41;;;;;;;12.55;6.88;;;11.50;59.10;;;;;;6245735;28;20168;-73
2024/01/16 13:35:48;;;;;;;13.63;5.63;;;11.50;58.70;;;;;;6243722;28;20110;-73
2024/01/16 13:38:51;;;;;;;16.00;6.85;;;11.60;58.90;;;;;;6276264;28;20021;-74
2024/01/16 13:41:52;;;;;;;11.93;5.50;;;11.70;58.80;;;;;;6225698;28;20591;-74
2024/01/16 13:44:53;;;;;;;11.93;4.95;;;11.70;58.50;;;;;;6245999;28;20025;-74
2024/01/16 13:47:57;;;;;;;9.85;4.97;;;11.80;58.00;;;;;;6244581;28;20115;-73
2024/01/16 13:50:58;;;;;;;8.57;4.32;;;11.80;57.90;;;;;;6260487;28;20044;-74
2024/01/16 13:53:59;;;;;;;9.63;4.47;;;11.70;57.60;;;;;;6229496;28;20060;-74
2024/01/16 13:57:00;;;;;;;10.45;4.97;;;11.70;57.50;;;;;;6244035;28;20025;-73
2024/01/16 14:00:02;;;;;;;7.85;4.63;;;11.70;57.50;;;;;;6245062;28;20422;-73
2024/01/16 14:03:12;;;;;;;10.65;4.85;;;11.70;57.40;;;;;;6245448;28;20040;-73
2024/01/16 14:06:13;;;;;;;13.05;5.07;;;11.80;57.50;;;;;;6258165;28;20022;-74
2024/01/16 14:09:14;;;;;;;9.45;4.55;;;11.70;57.60;;;;;;6243668;28;20033;-73
2024/01/16 14:12:15;;;;;;;8.25;4.40;;;11.80;57.60;;;;;;6242759;28;20108;-73
2024/01/16 14:15:24;;;;;;;10.43;4.63;;;11.70;57.50;;;;;;6239548;28;20508;-73
2024/01/16 14:18:25;;;;;;;10.70;4.83;;;11.80;57.60;;;;;;6257076;28;20021;-74
2024/01/16 14:21:25;;;;;;;10.68;4.95;;;11.70;57.30;;;;;;6245327;28;20128;-72
2024/01/16 14:24:27;;;;;;;10.40;5.15;;;11.70;57.20;;;;;;6244903;28;20040;-73
2024/01/16 14:27:28;;;;;;;14.23;5.22;;;11.60;57.20;;;;;;6228103;28;20032;-74
2024/01/16 14:30:30;;;;;;;10.10;4.68;;;11.50;57.30;;;;;;6277547;28;20456;-74
2024/01/16 14:33:31;;;;;;;7.68;3.72;;;11.40;57.60;;;;;;6257028;28;20041;-71
2024/01/16 14:36:33;;;;;;;9.88;5.18;;;11.30;57.60;;;;;;6244500;28;20025;-73
2024/01/16 14:39:36;;;;;;;9.52;4.53;;;11.30;57.90;;;;;;6275412;28;20079;-74
2024/01/16 14:42:37;;;;;;;10.25;5.32;;;11.20;58.10;;;;;;6252549;28;20535;-72
2024/01/16 14:45:38;;;;;;;12.50;4.70;;;11.30;58.10;;;;;;6251191;28;20789;-76
2024/01/16 14:48:49;;;;;;;17.83;5.85;;;11.30;58.20;;;;;;6243958;28;20032;-74
2024/01/16 14:51:50;;;;;;;13.57;6.13;;;11.20;58.20;;;;;;6278955;28;20029;-73
2024/01/16 14:54:51;;;;;;;12.95;5.55;;;11.30;58.20;;;;;;6247756;28;20079;-74
2024/01/16 14:57:55;;;;;;;10.73;5.35;;;11.20;57.90;;;;;;6238650;28;20438;-74
2024/01/16 15:00:56;;;;;;;9.60;4.68;;;11.30;58.10;;;;;;6259022;28;20037;-72
2024/01/16 15:03:57;;;;;;;14.43;5.13;;;11.30;58.20;;;;;;6250156;28;20107;-73
2024/01/16 15:06:58;;;;;;;14.80;6.25;;;11.20;58.20;;;;;;6246669;28;20152;-73
2024/01/16 15:09:59;;;;;;;9.93;4.38;;;11.20;58.40;;;;;;6248888;28;20073;-73
2024/01/16 15:13:00;;;;;;;8.73;4.53;;;11.20;58.50;;;;;;6249067;28;20021;-73
2024/01/16 15:16:01;;;;;;;8.88;3.80;;;11.20;58.50;;;;;;6247572;28;20400;-73
2024/01/16 15:19:02;;;;;;;7.72;4.05;;;11.20;58.50;;;;;;6247039;28;20632;-74
2024/01/16 15:22:04;;;;;;;10.35;5.10;;;11.10;58.50;;;;;;6251518;28;20022;-73
2024/01/16 15:25:05;;;;;;;10.32;4.60;;;11.10;58.40;;;;;;6236434;28;20067;-74
2024/01/16 15:28:10;;;;;;;10.90;3.72;;;11.10;58.40;;;;;;6248509;28;20040;-74
2024/01/16 15:31:13;;;;;;;11.88;3.53;;;11.00;58.50;;;;;;6264238;28;20115;-74
2024/01/16 15:34:14;;;;;;;9.55;3.40;;;10.90;58.60;;;;;;6246286;28;20029;-74
2024/01/16 15:37:15;;;;;;;7.28;4.63;;;10.90;58.60;;;;;;6253802;28;21405;-75
2024/01/16 15:40:17;;;;;;;6.78;3.90;;;10.90;58.70;;;;;;6248406;28;20040;-75
2024/01/16 15:43:18;;;;;;;13.98;5.68;;;10.90;58.80;;;;;;6250782;28;20096;-73
2024/01/16 15:46:19;;;;;;;12.77;4.70;;;10.90;58.80;;;;;;6263583;28;20049;-74
2024/01/16 15:49:21;;;;;;;9.25;4.13;;;11.00;58.90;;;;;;6246417;28;20009;-74